Time;durP1;ratioP1;P1;durP2;ratioP2;P2;SDS_P1;SDS_P2;PMS_P1;PMS_P2;Temp;Humidity;BMP_temperature;BMP_pressure;BME280_temperature;BME280_humidity;BME280_pressure;Samples;Min_cycle;Max_cycle;Signal;HPM_P1;HPM_P2
2023/05/18 00:02:00;;;;;;;10.23;4.25;;;20.00;55.80;;;;;;8207226;28;20026;-80
2023/05/18 00:06:05;;;;;;;12.13;4.78;;;20.00;55.80;;;;;;8254886;28;20015;-80
2023/05/18 00:10:07;;;;;;;10.23;4.15;;;20.00;55.80;;;;;;8239034;28;20108;-80
2023/05/18 00:14:08;;;;;;;9.75;4.18;;;20.00;55.80;;;;;;8238798;28;20015;-80
2023/05/18 00:18:09;;;;;;;10.70;4.57;;;19.90;55.70;;;;;;8243637;28;20031;-80
2023/05/18 00:22:09;;;;;;;;;;;20.00;55.80;;;;;;8191362;28;20041;-80
2023/05/18 00:26:10;;;;;;;10.77;4.83;;;20.00;55.80;;;;;;8234047;28;20110;-80
2023/05/18 00:30:11;;;;;;;11.52;4.47;;;20.00;55.80;;;;;;8217102;28;20088;-80
2023/05/18 00:34:13;;;;;;;11.23;4.25;;;19.90;55.80;;;;;;8217045;28;20042;-80
2023/05/18 00:38:14;;;;;;;11.77;5.20;;;19.90;55.80;;;;;;8232506;28;20126;-80
2023/05/18 00:42:15;;;;;;;8.27;3.90;;;19.90;55.80;;;;;;8216592;28;20109;-80
2023/05/18 00:46:16;;;;;;;8.85;4.20;;;19.90;55.80;;;;;;8216316;28;20127;-80
2023/05/18 00:50:17;;;;;;;11.60;4.72;;;19.90;55.80;;;;;;8200657;28;20066;-81
2023/05/18 00:54:18;;;;;;;12.35;4.13;;;19.90;55.80;;;;;;8216319;28;20481;-80
2023/05/18 00:58:19;;;;;;;9.57;3.70;;;19.90;55.80;;;;;;8216126;28;20485;-80
2023/05/18 01:02:21;;;;;;;10.85;3.97;;;19.90;55.80;;;;;;8215846;28;20462;-80
2023/05/18 01:06:25;;;;;;;8.10;3.60;;;19.90;55.80;;;;;;8232074;28;20117;-80
2023/05/18 01:10:26;;;;;;;9.80;3.70;;;19.90;55.80;;;;;;8232954;28;20069;-81
2023/05/18 01:14:30;;;;;;;8.38;3.60;;;19.90;55.90;;;;;;8215415;28;20039;-80
2023/05/18 01:18:42;;;;;;;7.18;3.53;;;19.90;55.80;;;;;;8231634;28;20588;-80
2023/05/18 01:22:52;;;;;;;7.90;3.67;;;19.90;55.80;;;;;;8231487;28;20054;-80
2023/05/18 01:26:56;;;;;;;8.23;3.35;;;19.90;55.80;;;;;;8230997;28;20085;-80
2023/05/18 01:30:57;;;;;;;10.05;3.80;;;19.90;55.80;;;;;;8215408;28;20094;-80
2023/05/18 01:34:58;;;;;;;6.88;3.33;;;19.90;55.80;;;;;;8231888;28;20177;-80
2023/05/18 01:39:00;;;;;;;7.73;3.40;;;19.90;55.80;;;;;;8214577;28;20090;-80
2023/05/18 01:43:09;;;;;;;7.88;3.50;;;19.90;55.80;;;;;;8230696;28;20038;-80
2023/05/18 01:47:12;;;;;;;8.80;3.67;;;19.90;55.80;;;;;;8230417;28;20031;-80
2023/05/18 01:51:19;;;;;;;9.02;3.33;;;19.90;55.80;;;;;;8231604;28;20034;-80
2023/05/18 01:55:21;;;;;;;6.47;2.92;;;19.90;55.80;;;;;;8230522;28;20031;-80
2023/05/18 01:59:23;;;;;;;5.13;2.50;;;19.90;55.80;;;;;;8231270;28;20019;-80
2023/05/18 02:03:23;;;;;;;;;;;19.90;55.80;;;;;;8198299;28;20034;-80
2023/05/18 02:07:24;;;;;;;5.57;2.67;;;19.90;55.80;;;;;;8230145;28;20286;-80
2023/05/18 02:11:25;;;;;;;7.43;3.33;;;19.90;55.80;;;;;;8229878;28;20657;-82
2023/05/18 02:15:25;;;;;;;7.22;3.08;;;19.90;55.80;;;;;;8213489;28;20488;-80
2023/05/18 02:19:26;;;;;;;8.10;3.38;;;19.80;55.70;;;;;;8213404;28;20110;-80
2023/05/18 02:23:27;;;;;;;5.47;2.65;;;19.90;55.80;;;;;;8213293;28;20031;-80
2023/05/18 02:27:28;;;;;;;5.90;2.70;;;19.80;56.30;;;;;;8213598;28;20038;-80
2023/05/18 02:31:29;;;;;;;5.18;2.67;;;19.90;56.30;;;;;;8228899;28;20034;-80
2023/05/18 02:35:30;;;;;;;7.43;3.17;;;19.80;55.80;;;;;;8213222;28;20043;-80
2023/05/18 02:39:32;;;;;;;5.33;2.43;;;19.90;55.80;;;;;;8212337;28;20556;-80
2023/05/18 02:43:33;;;;;;;5.30;2.83;;;19.80;55.80;;;;;;8196978;28;20687;-79
2023/05/18 02:47:34;;;;;;;7.03;2.72;;;19.80;55.80;;;;;;8212746;28;20035;-80
2023/05/18 02:51:35;;;;;;;5.45;2.83;;;19.90;55.80;;;;;;8228772;28;20081;-80
2023/05/18 02:55:36;;;;;;;;;;;19.80;55.80;;;;;;8229350;28;20034;-80
2023/05/18 02:59:37;;;;;;;5.37;3.13;;;19.80;55.80;;;;;;8229676;28;20061;-80
2023/05/18 03:03:38;;;;;;;4.05;2.30;;;19.90;55.80;;;;;;8228683;28;20389;-80
2023/05/18 03:07:39;;;;;;;4.32;2.33;;;19.90;55.80;;;;;;8212546;28;20043;-80
2023/05/18 03:11:39;;;;;;;5.80;2.57;;;19.80;55.80;;;;;;8228459;28;20090;-80
2023/05/18 03:15:41;;;;;;;5.50;2.33;;;19.80;55.80;;;;;;8228949;28;20645;-80
2023/05/18 03:19:41;;;;;;;5.45;2.35;;;19.90;55.80;;;;;;8227948;28;20625;-80
2023/05/18 03:23:42;;;;;;;5.43;2.50;;;19.90;55.80;;;;;;8212446;28;20031;-82
2023/05/18 03:27:42;;;;;;;4.07;2.50;;;19.80;55.70;;;;;;8212305;28;20409;-81
2023/05/18 03:31:43;;;;;;;4.87;2.60;;;19.80;55.70;;;;;;8229481;28;20042;-82
2023/05/18 03:35:44;;;;;;;5.88;2.45;;;19.80;55.80;;;;;;8227973;28;20752;-80
2023/05/18 03:39:45;;;;;;;5.35;2.13;;;19.80;55.70;;;;;;8211966;28;20065;-82
2023/05/18 03:43:45;;;;;;;5.28;1.98;;;19.90;55.80;;;;;;8195925;28;20105;-80
2023/05/18 03:47:46;;;;;;;4.55;2.53;;;19.80;55.70;;;;;;8228348;28;20097;-80
2023/05/18 03:51:47;;;;;;;4.85;2.13;;;19.80;55.70;;;;;;8215027;28;20034;-82
2023/05/18 03:55:50;;;;;;;6.07;2.60;;;19.90;55.80;;;;;;8170138;29;20032;-79
2023/05/18 03:59:51;;;;;;;5.43;2.20;;;19.80;56.20;;;;;;8170519;29;20035;-82
2023/05/18 04:03:55;;;;;;;5.25;2.42;;;19.80;55.70;;;;;;8201922;29;20039;-81
2023/05/18 04:07:56;;;;;;;4.15;2.13;;;19.80;55.90;;;;;;8203078;29;20043;-82
2023/05/18 04:11:56;;;;;;;4.03;1.98;;;19.80;56.00;;;;;;8201858;29;20043;-81
2023/05/18 04:15:57;;;;;;;4.38;2.50;;;19.80;55.90;;;;;;8202518;29;20548;-81
2023/05/18 04:19:58;;;;;;;5.22;2.33;;;19.90;55.70;;;;;;8185394;29;20445;-81
2023/05/18 04:24:01;;;;;;;4.32;1.92;;;20.00;55.60;;;;;;8187455;28;20114;-81
2023/05/18 04:28:02;;;;;;;3.28;1.65;;;20.00;55.40;;;;;;8170438;29;20086;-81
2023/05/18 04:32:03;;;;;;;4.47;2.33;;;20.10;55.30;;;;;;8200932;29;20039;-81
2023/05/18 04:36:04;;;;;;;5.35;2.03;;;20.10;55.30;;;;;;8184631;28;20058;-81
2023/05/18 04:40:06;;;;;;;5.35;1.80;;;20.10;55.30;;;;;;8200479;29;20357;-81
2023/05/18 04:44:08;;;;;;;4.80;2.03;;;20.10;55.20;;;;;;8185064;29;20040;-82
2023/05/18 04:48:09;;;;;;;4.32;1.80;;;20.10;55.20;;;;;;8200770;28;20066;-81
2023/05/18 04:52:10;;;;;;;4.25;1.92;;;20.10;55.20;;;;;;8205308;28;20035;-81
2023/05/18 04:56:12;;;;;;;3.53;2.10;;;20.10;55.20;;;;;;8231912;28;20039;-81
2023/05/18 05:00:13;;;;;;;2.70;1.83;;;20.10;55.20;;;;;;8215804;28;20240;-81
2023/05/18 05:04:14;;;;;;;2.70;1.67;;;20.10;55.20;;;;;;8231354;28;20066;-81
2023/05/18 05:08:15;;;;;;;3.83;2.05;;;20.10;55.20;;;;;;8231823;28;20042;-81
2023/05/18 05:12:16;;;;;;;3.65;1.77;;;20.00;55.10;;;;;;8199820;28;20035;-81
2023/05/18 05:16:16;;;;;;;4.20;1.87;;;20.10;55.20;;;;;;8199346;28;20073;-81
2023/05/18 05:20:18;;;;;;;2.95;1.63;;;20.00;55.20;;;;;;8233279;28;20286;-81
2023/05/18 05:24:18;;;;;;;5.15;1.70;;;20.10;55.20;;;;;;8199755;28;20036;-81
2023/05/18 05:28:19;;;;;;;3.35;1.60;;;20.10;55.20;;;;;;8183786;29;20078;-81
2023/05/18 05:32:19;;;;;;;3.03;1.30;;;20.10;55.20;;;;;;8151708;29;20040;-81
2023/05/18 05:36:20;;;;;;;5.22;1.92;;;20.00;55.20;;;;;;8198639;28;20309;-81
2023/05/18 05:40:21;;;;;;;3.20;1.65;;;20.10;55.20;;;;;;8182885;29;20062;-81
2023/05/18 05:44:22;;;;;;;2.80;1.70;;;20.10;55.20;;;;;;8182969;29;20039;-82
2023/05/18 05:48:22;;;;;;;2.08;1.38;;;20.10;55.20;;;;;;8150994;29;20322;-81
2023/05/18 05:52:23;;;;;;;3.92;1.60;;;20.00;55.20;;;;;;8203956;28;20035;-81
2023/05/18 05:56:23;;;;;;;2.83;1.67;;;20.00;55.70;;;;;;8230473;28;20071;-81
2023/05/18 06:00:26;;;;;;;3.53;1.63;;;20.00;55.20;;;;;;8230427;28;20054;-81
2023/05/18 06:04:27;;;;;;;3.45;1.45;;;20.00;55.30;;;;;;8213887;28;20045;-81
2023/05/18 06:08:27;;;;;;;3.03;1.20;;;20.00;55.30;;;;;;8230197;28;20062;-82
2023/05/18 06:12:28;;;;;;;3.97;1.77;;;20.00;55.30;;;;;;8197662;28;20297;-81
2023/05/18 06:16:29;;;;;;;4.25;1.83;;;20.00;55.30;;;;;;8229321;28;20045;-81
2023/05/18 06:20:29;;;;;;;1.88;1.23;;;20.00;55.30;;;;;;8197426;28;20169;-81
2023/05/18 06:24:30;;;;;;;3.42;1.70;;;20.00;55.30;;;;;;8229765;28;20027;-81
2023/05/18 06:28:31;;;;;;;2.80;1.40;;;20.00;55.20;;;;;;8229332;28;20039;-81
2023/05/18 06:32:31;;;;;;;2.53;1.40;;;20.10;55.30;;;;;;8229453;28;20047;-81
2023/05/18 06:36:33;;;;;;;2.05;1.40;;;20.00;55.20;;;;;;8213103;28;20051;-81
2023/05/18 06:40:33;;;;;;;;;;;20.00;55.20;;;;;;8214676;28;20030;-81
2023/05/18 06:44:34;;;;;;;3.57;1.90;;;20.00;55.10;;;;;;8230258;28;20005;-81
2023/05/18 06:48:36;;;;;;;2.55;1.52;;;20.00;55.20;;;;;;8228890;28;20266;-81
2023/05/18 06:52:36;;;;;;;;;;;20.00;55.20;;;;;;8229600;28;20409;-81
2023/05/18 06:56:37;;;;;;;2.30;1.30;;;20.00;55.30;;;;;;8228611;28;19937;-81
2023/05/18 07:00:38;;;;;;;2.15;1.30;;;20.00;55.30;;;;;;8196258;28;20508;-81
2023/05/18 07:04:39;;;;;;;3.30;1.73;;;20.00;55.30;;;;;;8212041;28;20035;-81
2023/05/18 07:08:40;;;;;;;2.47;1.40;;;20.00;55.30;;;;;;8212051;28;20042;-81
2023/05/18 07:12:40;;;;;;;3.22;1.55;;;20.00;55.30;;;;;;8228233;28;20026;-81
2023/05/18 07:16:43;;;;;;;1.67;1.33;;;20.00;55.40;;;;;;8212136;28;20031;-81
2023/05/18 07:20:43;;;;;;;1.83;1.20;;;20.00;55.30;;;;;;8228231;28;20030;-81
2023/05/18 07:24:44;;;;;;;3.00;1.40;;;20.00;55.30;;;;;;8196402;28;20035;-81
2023/05/18 07:28:45;;;;;;;3.60;1.30;;;20.00;55.30;;;;;;8155371;29;20038;-81
2023/05/18 07:32:45;;;;;;;2.15;1.38;;;20.00;55.80;;;;;;8202706;29;20031;-82
2023/05/18 07:36:46;;;;;;;2.95;1.33;;;20.00;55.20;;;;;;8218563;28;20066;-81
2023/05/18 07:40:47;;;;;;;2.87;1.63;;;20.00;55.30;;;;;;8219507;28;20393;-81
2023/05/18 07:44:48;;;;;;;2.17;1.27;;;20.00;55.30;;;;;;8205106;28;20310;-80
2023/05/18 07:48:48;;;;;;;1.35;1.00;;;20.00;55.30;;;;;;8189189;29;20035;-81
2023/05/18 07:52:49;;;;;;;2.47;1.20;;;20.00;55.30;;;;;;8197868;28;20035;-81
2023/05/18 07:56:50;;;;;;;2.28;1.30;;;20.00;55.30;;;;;;8239342;28;20035;-81
2023/05/18 08:00:51;;;;;;;1.17;1.08;;;20.00;55.30;;;;;;8227865;28;20046;-81
2023/05/18 08:04:52;;;;;;;2.30;1.30;;;20.00;55.30;;;;;;8261333;28;20019;-81
2023/05/18 08:08:55;;;;;;;2.45;1.33;;;20.00;55.30;;;;;;8244833;28;20083;-81
2023/05/18 08:12:56;;;;;;;1.58;0.93;;;20.00;55.30;;;;;;8277139;28;20030;-81
2023/05/18 08:16:56;;;;;;;1.85;1.20;;;20.00;55.30;;;;;;8277499;28;20034;-81
2023/05/18 08:20:57;;;;;;;2.45;1.40;;;20.00;55.30;;;;;;8244068;28;20178;-81
2023/05/18 08:24:59;;;;;;;1.88;1.13;;;20.00;55.30;;;;;;8277255;28;20023;-81
2023/05/18 08:29:00;;;;;;;1.95;1.13;;;20.00;55.30;;;;;;8253871;28;20042;-81
2023/05/18 08:33:01;;;;;;;2.70;1.30;;;20.00;55.20;;;;;;8217818;28;20058;-81
2023/05/18 08:37:02;;;;;;;;;;;20.00;55.20;;;;;;8216583;28;20058;-81
2023/05/18 08:41:21;;;;;;;2.00;1.13;;;20.00;55.20;;;;;;8216765;28;19909;-81
2023/05/18 08:45:34;;;;;;;2.28;1.40;;;20.00;55.10;;;;;;8232723;28;20077;-81
2023/05/18 08:49:36;;;;;;;1.80;1.10;;;20.00;55.20;;;;;;8232571;28;20122;-81
2023/05/18 08:53:38;;;;;;;2.05;1.10;;;20.00;55.10;;;;;;8232969;28;20460;-81
2023/05/18 08:57:42;;;;;;;1.50;1.05;;;20.00;55.20;;;;;;8232158;28;20468;-81
2023/05/18 09:01:42;;;;;;;1.95;1.23;;;20.00;55.70;;;;;;8232209;28;20045;-81
2023/05/18 09:05:45;;;;;;;2.38;1.15;;;20.00;55.20;;;;;;8216507;28;20027;-81
2023/05/18 09:09:47;;;;;;;1.23;1.00;;;20.00;55.20;;;;;;8231821;28;20034;-81
2023/05/18 09:13:49;;;;;;;2.65;1.20;;;20.00;55.20;;;;;;8231547;28;20035;-81
2023/05/18 09:17:50;;;;;;;1.67;1.00;;;20.00;55.20;;;;;;8215863;28;20039;-81
2023/05/18 09:21:50;;;;;;;2.10;1.20;;;20.00;55.20;;;;;;8215468;28;20070;-81
2023/05/18 09:25:52;;;;;;;1.40;0.85;;;20.00;55.30;;;;;;8232862;28;20296;-81
2023/05/18 09:29:55;;;;;;;1.50;0.90;;;20.00;55.20;;;;;;8231747;28;20146;-81
2023/05/18 09:33:58;;;;;;;1.63;0.90;;;20.00;55.20;;;;;;8231237;28;20481;-81
2023/05/18 09:38:03;;;;;;;1.63;0.88;;;20.00;55.20;;;;;;8230603;28;20412;-81
2023/05/18 09:42:04;;;;;;;1.63;1.20;;;20.00;55.20;;;;;;8231048;28;20031;-81
2023/05/18 09:46:06;;;;;;;1.85;1.20;;;20.00;55.20;;;;;;8214709;28;20093;-81
2023/05/18 09:50:08;;;;;;;1.38;1.10;;;20.00;55.20;;;;;;8230368;28;20066;-81
2023/05/18 09:54:09;;;;;;;;;;;20.00;55.20;;;;;;8199189;28;20035;-81
2023/05/18 09:58:10;;;;;;;2.47;1.25;;;20.00;55.20;;;;;;8214343;28;19922;-80
2023/05/18 10:02:12;;;;;;;2.17;1.25;;;20.00;55.20;;;;;;8231566;28;20026;-81
2023/05/18 10:06:18;;;;;;;1.00;0.80;;;20.00;55.20;;;;;;8214288;28;20078;-82
2023/05/18 10:10:21;;;;;;;1.85;0.90;;;20.00;55.20;;;;;;8229807;28;20037;-81
2023/05/18 10:14:29;;;;;;;1.85;1.30;;;20.00;55.20;;;;;;8214048;28;20074;-82
2023/05/18 10:18:33;;;;;;;3.00;1.08;;;20.00;55.20;;;;;;8214173;28;20485;-82
2023/05/18 10:22:37;;;;;;;2.78;1.20;;;20.00;55.20;;;;;;8229836;28;20031;-82
2023/05/18 10:26:40;;;;;;;0.80;0.80;;;20.00;55.30;;;;;;8229342;28;20141;-79
2023/05/18 10:30:41;;;;;;;1.98;1.38;;;20.00;55.30;;;;;;8213754;28;20070;-80
2023/05/18 10:34:44;;;;;;;1.58;0.98;;;19.90;55.20;;;;;;8213378;28;20043;-79
2023/05/18 10:38:46;;;;;;;2.88;0.95;;;19.90;55.20;;;;;;8213094;28;20436;-80
2023/05/18 10:42:49;;;;;;;1.55;1.00;;;19.90;55.30;;;;;;8212853;28;20023;-80
2023/05/18 10:46:50;;;;;;;3.45;1.30;;;19.90;55.30;;;;;;8229503;28;20079;-81
2023/05/18 10:50:52;;;;;;;;;;;19.90;55.30;;;;;;8213155;28;20374;-80
2023/05/18 10:54:53;;;;;;;;;;;19.90;55.30;;;;;;8229684;28;19914;-80
2023/05/18 10:58:54;;;;;;;1.13;0.97;;;19.90;55.30;;;;;;8212795;28;19969;-81
2023/05/18 11:02:56;;;;;;;2.40;1.00;;;19.90;55.40;;;;;;8229312;28;20030;-80
2023/05/18 11:07:01;;;;;;;;;;;20.00;55.40;;;;;;8229434;28;20103;-80
2023/05/18 11:11:06;;;;;;;1.83;0.95;;;20.00;55.30;;;;;;8229951;28;20257;-80
2023/05/18 11:15:07;;;;;;;1.70;1.05;;;20.00;55.20;;;;;;8228018;28;20039;-80
2023/05/18 11:19:11;;;;;;;;;;;20.10;55.20;;;;;;8228973;28;20366;-82
2023/05/18 11:23:17;;;;;;;1.00;0.90;;;20.10;55.10;;;;;;8229945;28;20004;-82
2023/05/18 11:27:20;;;;;;;0.68;0.63;;;20.10;55.10;;;;;;8228067;28;20051;-82
2023/05/18 11:31:54;;;;;;;0.95;0.70;;;20.10;55.10;;;;;;8211961;28;20027;-82
2023/05/18 11:36:07;;;;;;;2.65;1.10;;;20.10;55.10;;;;;;8227743;28;20061;-82
2023/05/18 11:40:32;;;;;;;2.03;1.30;;;20.10;55.10;;;;;;8227937;28;20045;-82
2023/05/18 11:44:33;;;;;;;2.28;1.10;;;20.00;55.00;;;;;;8243747;28;20509;-82
2023/05/18 11:48:33;;;;;;;0.95;0.80;;;20.10;55.10;;;;;;8243981;28;20023;-82
2023/05/18 11:52:46;;;;;;;1.10;0.80;;;20.10;55.10;;;;;;8228034;28;20043;-81
2023/05/18 11:56:47;;;;;;;1.42;1.00;;;20.00;55.10;;;;;;8227716;28;20366;-82
2023/05/18 12:00:48;;;;;;;1.98;1.10;;;20.00;55.10;;;;;;8227475;28;20034;-82
2023/05/18 12:04:53;;;;;;;1.50;0.85;;;20.00;55.20;;;;;;8229033;28;20047;-82
2023/05/18 12:08:54;;;;;;;1.42;0.95;;;20.00;55.20;;;;;;8195652;28;20073;-82
2023/05/18 12:12:56;;;;;;;0.68;0.68;;;20.00;55.20;;;;;;8230231;28;20060;-82
2023/05/18 12:16:58;;;;;;;1.20;1.00;;;20.00;55.20;;;;;;8234772;28;20070;-81
2023/05/18 12:21:03;;;;;;;1.20;0.88;;;20.00;55.30;;;;;;8233480;28;20473;-82
2023/05/18 12:25:05;;;;;;;1.05;0.98;;;20.00;55.30;;;;;;8249479;28;20525;-82
2023/05/18 12:29:06;;;;;;;1.17;0.93;;;20.00;55.30;;;;;;8232963;28;20154;-82
2023/05/18 12:33:07;;;;;;;1.27;1.08;;;20.00;55.30;;;;;;8216866;28;20038;-82
2023/05/18 12:37:07;;;;;;;1.38;1.08;;;20.00;55.30;;;;;;8216576;28;20390;-79
2023/05/18 12:41:08;;;;;;;0.77;0.70;;;20.00;55.30;;;;;;8216709;28;20477;-79
2023/05/18 12:45:09;;;;;;;1.35;1.10;;;20.00;55.30;;;;;;8216556;28;20038;-79
2023/05/18 12:49:11;;;;;;;0.90;0.80;;;20.00;55.30;;;;;;8216184;28;20035;-82
2023/05/18 12:53:12;;;;;;;0.80;0.80;;;20.00;55.30;;;;;;8232451;28;20432;-81
2023/05/18 12:57:15;;;;;;;0.73;0.60;;;20.00;55.40;;;;;;8233602;28;20436;-82
2023/05/18 13:01:15;;;;;;;1.60;0.93;;;20.00;55.50;;;;;;8232049;28;20031;-82
2023/05/18 13:05:23;;;;;;;0.77;0.77;;;20.00;55.40;;;;;;8216659;28;20073;-82
2023/05/18 13:09:23;;;;;;;1.25;0.98;;;20.00;55.30;;;;;;8231983;28;20038;-82
2023/05/18 13:13:24;;;;;;;1.03;0.70;;;20.10;55.20;;;;;;8183677;28;20069;-82
2023/05/18 13:17:24;;;;;;;0.85;0.70;;;20.10;55.20;;;;;;8248026;28;20308;-82
2023/05/18 13:21:25;;;;;;;1.17;0.77;;;20.10;55.10;;;;;;8215349;28;20035;-79
2023/05/18 13:25:26;;;;;;;1.52;1.10;;;20.10;55.10;;;;;;8230910;28;20648;-80
2023/05/18 13:29:27;;;;;;;1.27;0.95;;;20.10;55.10;;;;;;8232562;28;20031;-81
2023/05/18 13:33:28;;;;;;;1.20;0.95;;;20.10;55.10;;;;;;8215305;28;20038;-82
2023/05/18 13:37:28;;;;;;;1.33;0.80;;;20.10;55.10;;;;;;8214612;28;20465;-82
2023/05/18 13:41:29;;;;;;;1.17;0.80;;;20.10;55.10;;;;;;8215412;28;20278;-82
2023/05/18 13:45:30;;;;;;;0.88;0.75;;;20.10;55.20;;;;;;8230640;28;20321;-82
2023/05/18 13:49:30;;;;;;;0.85;0.73;;;20.10;55.20;;;;;;8230760;28;20042;-81
2023/05/18 13:53:31;;;;;;;1.05;0.98;;;20.00;55.20;;;;;;8198873;28;20042;-81
2023/05/18 13:57:32;;;;;;;1.75;0.95;;;20.00;55.20;;;;;;8230291;28;20043;-81
2023/05/18 14:01:33;;;;;;;1.20;0.90;;;20.00;55.20;;;;;;8230512;28;20030;-81
2023/05/18 14:05:34;;;;;;;0.95;0.75;;;20.00;55.30;;;;;;8232391;28;20031;-81
2023/05/18 14:09:34;;;;;;;0.90;0.80;;;20.00;55.20;;;;;;8214119;28;20090;-81
2023/05/18 14:13:35;;;;;;;1.05;0.85;;;20.00;55.20;;;;;;8229853;28;20035;-81
2023/05/18 14:17:36;;;;;;;1.30;1.05;;;20.00;55.30;;;;;;8213810;28;20035;-81
2023/05/18 14:21:37;;;;;;;0.80;0.80;;;20.00;55.30;;;;;;8231098;28;20027;-81
2023/05/18 14:25:37;;;;;;;0.88;0.80;;;20.00;55.40;;;;;;8197588;28;20035;-81
2023/05/18 14:29:38;;;;;;;0.80;0.63;;;20.00;55.20;;;;;;8213430;28;20230;-81
2023/05/18 14:33:39;;;;;;;1.20;0.93;;;20.00;55.20;;;;;;8229379;28;20109;-81
2023/05/18 14:37:39;;;;;;;1.52;1.00;;;20.10;55.20;;;;;;8213252;28;20075;-81
2023/05/18 14:41:40;;;;;;;0.77;0.77;;;20.10;55.20;;;;;;8229152;28;20031;-81
2023/05/18 14:45:41;;;;;;;1.27;0.70;;;20.10;55.20;;;;;;8197338;28;20297;-81
2023/05/18 14:49:41;;;;;;;0.73;0.63;;;20.10;55.20;;;;;;8230361;28;20340;-81
2023/05/18 14:53:42;;;;;;;0.82;0.82;;;20.10;55.20;;;;;;8213110;28;20038;-81
2023/05/18 14:57:43;;;;;;;0.95;0.90;;;20.10;55.20;;;;;;8228774;28;20050;-81
2023/05/18 15:01:43;;;;;;;1.05;0.75;;;20.00;55.20;;;;;;8228849;28;20027;-81
2023/05/18 15:05:44;;;;;;;0.80;0.77;;;20.00;55.20;;;;;;8196578;28;20039;-81
2023/05/18 15:09:45;;;;;;;0.90;0.70;;;20.00;55.20;;;;;;8212932;28;20298;-81
2023/05/18 15:13:46;;;;;;;0.70;0.60;;;20.00;55.20;;;;;;8212539;28;20062;-81
2023/05/18 15:17:47;;;;;;;;;;;20.00;55.20;;;;;;8229614;28;20138;-81
2023/05/18 15:21:48;;;;;;;0.97;0.80;;;20.00;55.20;;;;;;8228798;28;19914;-81
2023/05/18 15:25:50;;;;;;;1.58;0.70;;;20.00;55.30;;;;;;8196200;28;20031;-81
2023/05/18 15:29:51;;;;;;;1.13;0.80;;;20.00;55.30;;;;;;8212566;28;20051;-81
2023/05/18 15:33:51;;;;;;;0.73;0.73;;;20.10;55.30;;;;;;8228527;28;20027;-81
2023/05/18 15:37:52;;;;;;;0.67;0.63;;;20.10;55.20;;;;;;8227863;28;20058;-81
2023/05/18 15:41:53;;;;;;;1.30;0.90;;;20.10;55.10;;;;;;8228622;28;20321;-81
2023/05/18 15:45:53;;;;;;;0.80;0.70;;;20.10;55.10;;;;;;8212343;28;20035;-81
2023/05/18 15:49:54;;;;;;;1.38;0.70;;;20.10;55.10;;;;;;8218275;28;20027;-81
2023/05/18 15:53:55;;;;;;;0.55;0.50;;;20.10;55.10;;;;;;8236301;28;20065;-81
2023/05/18 15:57:55;;;;;;;0.80;0.60;;;20.10;55.10;;;;;;8218571;28;20038;-81
2023/05/18 16:01:56;;;;;;;0.95;0.70;;;20.10;55.10;;;;;;8235305;28;20026;-81
2023/05/18 16:05:57;;;;;;;0.68;0.68;;;20.10;55.10;;;;;;8204170;28;20162;-82
2023/05/18 16:09:57;;;;;;;0.90;0.60;;;20.10;55.10;;;;;;8219777;28;20378;-81
2023/05/18 16:13:59;;;;;;;0.73;0.73;;;20.10;55.10;;;;;;8236310;28;20019;-81
2023/05/18 16:18:00;;;;;;;0.50;0.50;;;20.10;55.10;;;;;;8260475;28;20604;-81
2023/05/18 16:22:01;;;;;;;0.80;0.73;;;20.10;55.10;;;;;;8260433;28;20007;-81
2023/05/18 16:26:04;;;;;;;0.60;0.60;;;20.10;55.10;;;;;;8276907;28;20045;-81
2023/05/18 16:30:05;;;;;;;0.65;0.60;;;20.10;55.10;;;;;;8292801;28;20042;-81
2023/05/18 16:34:06;;;;;;;;;;;20.10;55.20;;;;;;8260915;28;20058;-81
2023/05/18 16:38:06;;;;;;;0.50;0.50;;;20.10;55.20;;;;;;8276253;28;19973;-81
2023/05/18 16:42:08;;;;;;;0.73;0.70;;;20.00;55.20;;;;;;8229849;28;20031;-81
2023/05/18 16:46:09;;;;;;;0.70;0.52;;;20.00;55.20;;;;;;8201557;28;20082;-81
2023/05/18 16:50:10;;;;;;;0.70;0.60;;;20.00;55.30;;;;;;8217024;28;20063;-81
2023/05/18 16:54:11;;;;;;;1.38;0.70;;;20.00;55.30;;;;;;8203429;28;20038;-80
2023/05/18 16:58:11;;;;;;;0.57;0.57;;;20.10;55.30;;;;;;8182931;28;20070;-80
2023/05/18 17:02:12;;;;;;;0.88;0.80;;;20.10;55.20;;;;;;8168344;29;20717;-80
2023/05/18 17:06:14;;;;;;;1.10;0.80;;;20.10;55.10;;;;;;8200454;29;20047;-80
2023/05/18 17:10:14;;;;;;;0.68;0.55;;;20.10;55.10;;;;;;8200097;29;20034;-80
2023/05/18 17:14:15;;;;;;;0.70;0.70;;;20.10;55.10;;;;;;8200201;29;20050;-82
2023/05/18 17:18:15;;;;;;;0.60;0.60;;;20.10;55.10;;;;;;8200227;29;20034;-80
2023/05/18 17:22:16;;;;;;;0.77;0.77;;;20.10;55.20;;;;;;8172597;28;20029;-79
2023/05/18 17:26:17;;;;;;;0.70;0.70;;;20.10;55.10;;;;;;8215513;28;20169;-80
2023/05/18 17:30:18;;;;;;;0.70;0.60;;;20.20;55.00;;;;;;8231647;28;20529;-80
2023/05/18 17:34:18;;;;;;;0.95;0.68;;;20.10;55.00;;;;;;8215508;28;20086;-80
2023/05/18 17:38:21;;;;;;;0.85;0.60;;;20.10;54.90;;;;;;8231181;28;20135;-81
2023/05/18 17:42:21;;;;;;;4.10;0.90;;;20.10;55.00;;;;;;8215107;28;20110;-83
2023/05/18 17:46:22;;;;;;;1.63;1.27;;;20.20;54.60;;;;;;8230639;28;20035;-85
2023/05/18 17:50:23;;;;;;;6.50;2.40;;;20.20;54.10;;;;;;8215442;28;20042;-84
2023/05/18 17:54:24;;;;;;;3.63;1.70;;;20.10;51.80;;;;;;8199001;28;20035;-85
2023/05/18 17:58:25;;;;;;;2.85;1.77;;;20.10;51.70;;;;;;8166426;29;20042;-83
2023/05/18 18:02:26;;;;;;;2.75;1.90;;;20.10;51.40;;;;;;8198702;29;20106;-84
2023/05/18 18:06:26;;;;;;;5.35;2.35;;;20.20;51.00;;;;;;8182164;29;20031;-82
2023/05/18 18:10:30;;;;;;;4.57;2.35;;;20.10;49.80;;;;;;8203024;28;20045;-81
2023/05/18 18:14:30;;;;;;;9.50;2.30;;;20.10;50.10;;;;;;8182830;28;20050;-82
2023/05/18 18:18:34;;;;;;;5.32;2.17;;;20.20;52.20;;;;;;8213358;28;20039;-80
2023/05/18 18:22:35;;;;;;;4.72;2.45;;;20.20;54.10;;;;;;8230168;28;20023;-80
2023/05/18 18:26:39;;;;;;;6.72;2.78;;;20.30;53.80;;;;;;8229476;28;20559;-81
2023/05/18 18:30:42;;;;;;;4.07;1.90;;;20.30;57.00;;;;;;8230721;28;20047;-81
2023/05/18 18:34:43;;;;;;;4.65;2.10;;;20.30;55.80;;;;;;8213473;28;20575;-81
2023/05/18 18:38:44;;;;;;;5.15;2.25;;;20.30;55.10;;;;;;8212958;28;20385;-82
2023/05/18 18:42:46;;;;;;;6.47;2.55;;;20.40;54.80;;;;;;8230530;28;20038;-80
2023/05/18 18:46:47;;;;;;;2.72;2.10;;;20.40;54.70;;;;;;8212643;28;20073;-81
2023/05/18 18:50:48;;;;;;;4.47;2.10;;;20.40;54.60;;;;;;8230380;28;20031;-82
2023/05/18 18:54:48;;;;;;;4.20;1.92;;;20.40;54.40;;;;;;8195738;28;20368;-81
2023/05/18 18:58:49;;;;;;;6.10;2.17;;;20.40;54.30;;;;;;8229770;28;20035;-81
2023/05/18 19:02:50;;;;;;;6.75;1.70;;;20.40;54.30;;;;;;8212742;28;20062;-80
2023/05/18 19:06:53;;;;;;;5.38;2.30;;;20.40;54.20;;;;;;8228841;28;20121;-79
2023/05/18 19:10:55;;;;;;;4.05;2.08;;;20.50;54.10;;;;;;8246852;28;20120;-80
2023/05/18 19:14:55;;;;;;;6.18;2.05;;;20.50;53.90;;;;;;8263762;28;20035;-80
2023/05/18 19:18:56;;;;;;;3.20;2.20;;;20.50;53.70;;;;;;8263683;28;20081;-80
2023/05/18 19:22:57;;;;;;;4.60;1.92;;;20.60;53.70;;;;;;8236254;28;20546;-80
2023/05/18 19:26:57;;;;;;;4.20;2.17;;;20.60;53.70;;;;;;8230262;28;20042;-78
2023/05/18 19:30:58;;;;;;;9.02;5.57;;;20.60;53.40;;;;;;8230134;28;20286;-79
2023/05/18 19:34:59;;;;;;;12.68;6.88;;;20.60;53.40;;;;;;8230218;28;20050;-79
2023/05/18 19:38:59;;;;;;;15.25;7.38;;;20.60;53.50;;;;;;8230035;28;20552;-79
2023/05/18 19:43:00;;;;;;;11.25;7.20;;;20.60;53.60;;;;;;8230382;28;20035;-79
2023/05/18 19:47:01;;;;;;;13.15;7.00;;;20.60;53.60;;;;;;8230030;28;20043;-83
2023/05/18 19:51:02;;;;;;;19.33;9.48;;;20.60;53.60;;;;;;8231049;28;20505;-80
2023/05/18 19:55:04;;;;;;;32.70;15.90;;;20.60;53.40;;;;;;8229995;28;20042;-80
2023/05/18 19:59:05;;;;;;;26.67;16.70;;;20.60;53.40;;;;;;8179895;29;20031;-80
2023/05/18 20:03:05;;;;;;;62.38;35.28;;;20.60;53.50;;;;;;8169639;28;20114;-80
2023/05/18 20:07:07;;;;;;;79.80;43.03;;;20.60;53.90;;;;;;8211829;28;20039;-80
2023/05/18 20:11:07;;;;;;;81.95;46.08;;;20.60;53.50;;;;;;8195180;28;20061;-80
2023/05/18 20:15:08;;;;;;;104.30;56.33;;;20.60;54.00;;;;;;8210663;28;20034;-80
2023/05/18 20:19:10;;;;;;;119.50;66.55;;;20.50;53.60;;;;;;8226496;28;20055;-80
2023/05/18 20:23:11;;;;;;;136.02;77.32;;;20.40;53.80;;;;;;8228761;28;20060;-80
2023/05/18 20:27:13;;;;;;;147.63;82.83;;;20.40;53.90;;;;;;8211639;28;20050;-80
2023/05/18 20:31:14;;;;;;;172.90;95.03;;;20.40;54.00;;;;;;8228795;28;20662;-80
2023/05/18 20:35:15;;;;;;;171.93;99.18;;;20.30;54.00;;;;;;8231950;28;20085;-80
2023/05/18 20:39:16;;;;;;;189.70;104.80;;;20.30;54.00;;;;;;8233561;28;20058;-80
2023/05/18 20:43:16;;;;;;;187.05;104.45;;;20.30;54.10;;;;;;8201041;28;20038;-80
2023/05/18 20:47:20;;;;;;;183.88;104.63;;;20.20;54.10;;;;;;8216955;28;20102;-80
2023/05/18 20:51:21;;;;;;;197.45;109.43;;;20.20;54.20;;;;;;8232484;28;20035;-80
2023/05/18 20:55:22;;;;;;;199.48;110.40;;;20.20;54.20;;;;;;8232651;28;20155;-80
2023/05/18 20:59:23;;;;;;;197.32;110.07;;;20.20;54.30;;;;;;8231980;28;20043;-80